sensor_id;sensor_type;location;lat;lon;timestamp;pressure;altitude;pressure_sealevel;temperature;humidity
21547;BME280;41275;51.912;4.388;2024-01-15T00:00:34;100447.31;;;8.94;56.46
21547;BME280;41275;51.912;4.388;2024-01-15T00:05:55;100452.13;;;8.97;55.90
21547;BME280;41275;51.912;4.388;2024-01-15T00:11:17;100440.13;;;8.82;55.87
21547;BME280;41275;51.912;4.388;2024-01-15T00:16:40;100437.38;;;8.77;55.95
21547;BME280;41275;51.912;4.388;2024-01-15T00:22:01;100431.09;;;8.90;56.25
21547;BME280;41275;51.912;4.388;2024-01-15T00:27:23;100437.25;;;9.14;56.05
21547;BME280;41275;51.912;4.388;2024-01-15T00:32:44;100417.97;;;9.14;55.18
21547;BME280;41275;51.912;4.388;2024-01-15T00:38:06;100410.72;;;8.97;55.55
21547;BME280;41275;51.912;4.388;2024-01-15T00:43:27;100407.00;;;8.87;55.23
21547;BME280;41275;51.912;4.388;2024-01-15T00:48:48;100414.50;;;8.71;55.59
21547;BME280;41275;51.912;4.388;2024-01-15T00:54:09;100403.91;;;8.59;55.67
21547;BME280;41275;51.912;4.388;2024-01-15T00:59:30;100395.22;;;8.41;56.09
21547;BME280;41275;51.912;4.388;2024-01-15T01:04:52;100399.25;;;8.62;55.74
21547;BME280;41275;51.912;4.388;2024-01-15T01:10:13;100390.44;;;8.79;55.10
21547;BME280;41275;51.912;4.388;2024-01-15T01:15:34;100382.28;;;8.69;55.43
21547;BME280;41275;51.912;4.388;2024-01-15T01:20:55;100389.56;;;8.85;54.97
21547;BME280;41275;51.912;4.388;2024-01-15T01:26:17;100380.06;;;8.96;54.80
21547;BME280;41275;51.912;4.388;2024-01-15T01:31:45;100397.91;;;9.24;54.11
21547;BME280;41275;51.912;4.388;2024-01-15T01:37:06;100409.75;;;8.92;53.54
21547;BME280;41275;51.912;4.388;2024-01-15T01:42:28;100415.94;;;8.55;54.10
21547;BME280;41275;51.912;4.388;2024-01-15T01:47:49;100389.53;;;8.25;54.92
21547;BME280;41275;51.912;4.388;2024-01-15T01:53:10;100378.84;;;8.02;55.14
21547;BME280;41275;51.912;4.388;2024-01-15T01:58:32;100384.25;;;8.07;55.90
21547;BME280;41275;51.912;4.388;2024-01-15T02:03:54;100379.13;;;8.12;55.67
21547;BME280;41275;51.912;4.388;2024-01-15T02:09:18;100379.25;;;8.17;55.32
21547;BME280;41275;51.912;4.388;2024-01-15T02:14:39;100379.41;;;8.22;55.38
21547;BME280;41275;51.912;4.388;2024-01-15T02:20:01;100376.03;;;8.33;55.63
21547;BME280;41275;51.912;4.388;2024-01-15T02:25:22;100384.75;;;8.34;55.32
21547;BME280;41275;51.912;4.388;2024-01-15T02:30:44;100364.16;;;8.24;56.02
21547;BME280;41275;51.912;4.388;2024-01-15T02:36:05;100358.53;;;8.21;55.59
21547;BME280;41275;51.912;4.388;2024-01-15T02:41:26;100360.59;;;8.19;56.03
21547;BME280;41275;51.912;4.388;2024-01-15T02:46:48;100360.59;;;8.19;55.81
21547;BME280;41275;51.912;4.388;2024-01-15T02:52:09;100367.84;;;8.23;55.97
21547;BME280;41275;51.912;4.388;2024-01-15T02:57:30;100378.59;;;8.40;55.60
21547;BME280;41275;51.912;4.388;2024-01-15T03:02:51;100402.75;;;8.55;55.92
21547;BME280;41275;51.912;4.388;2024-01-15T03:08:13;100395.44;;;8.21;55.19
21547;BME280;41275;51.912;4.388;2024-01-15T03:13:36;100375.22;;;7.78;55.54
21547;BME280;41275;51.912;4.388;2024-01-15T03:18:58;100383.97;;;7.78;55.53
21547;BME280;41275;51.912;4.388;2024-01-15T03:24:19;100364.63;;;7.66;56.01
21547;BME280;41275;51.912;4.388;2024-01-15T03:29:40;100358.91;;;7.69;56.12
21547;BME280;41275;51.912;4.388;2024-01-15T03:35:02;100342.63;;;7.79;56.02
21547;BME280;41275;51.912;4.388;2024-01-15T03:40:23;100350.34;;;7.74;56.56
21547;BME280;41275;51.912;4.388;2024-01-15T03:45:44;100346.88;;;7.98;56.83
21547;BME280;41275;51.912;4.388;2024-01-15T03:51:06;100348.00;;;8.21;56.66
21547;BME280;41275;51.912;4.388;2024-01-15T03:56:27;100330.06;;;8.29;56.00
21547;BME280;41275;51.912;4.388;2024-01-15T04:01:49;100320.59;;;8.40;56.70
21547;BME280;41275;51.912;4.388;2024-01-15T04:07:11;100319.00;;;8.39;56.22
21547;BME280;41275;51.912;4.388;2024-01-15T04:12:33;100334.00;;;8.20;55.81
21547;BME280;41275;51.912;4.388;2024-01-15T04:17:54;100324.78;;;7.62;56.30
21547;BME280;41275;51.912;4.388;2024-01-15T04:23:15;100330.59;;;7.65;56.64
21547;BME280;41275;51.912;4.388;2024-01-15T04:28:36;100326.34;;;7.45;55.94
21547;BME280;41275;51.912;4.388;2024-01-15T04:33:57;100320.66;;;7.48;56.49
21547;BME280;41275;51.912;4.388;2024-01-15T04:39:19;100310.41;;;7.40;56.41
21547;BME280;41275;51.912;4.388;2024-01-15T04:44:40;100312.25;;;7.40;57.20
21547;BME280;41275;51.912;4.388;2024-01-15T04:50:01;100299.53;;;7.55;57.23
21547;BME280;41275;51.912;4.388;2024-01-15T04:55:22;100294.84;;;7.75;57.34
21547;BME280;41275;51.912;4.388;2024-01-15T05:00:44;100310.22;;;7.78;57.54
21547;BME280;41275;51.912;4.388;2024-01-15T05:06:05;100309.16;;;7.61;56.90
21547;BME280;41275;51.912;4.388;2024-01-15T05:11:26;100301.09;;;7.37;57.41
21547;BME280;41275;51.912;4.388;2024-01-15T05:16:48;100297.50;;;7.13;57.64
21547;BME280;41275;51.912;4.388;2024-01-15T05:22:10;100295.50;;;7.09;57.45
21547;BME280;41275;51.912;4.388;2024-01-15T05:27:31;100287.19;;;7.30;57.42
21547;BME280;41275;51.912;4.388;2024-01-15T05:32:52;100298.19;;;7.27;57.80
21547;BME280;41275;51.912;4.388;2024-01-15T05:38:13;100297.50;;;7.13;57.66
21547;BME280;41275;51.912;4.388;2024-01-15T05:43:35;100291.09;;;7.03;58.11
21547;BME280;41275;51.912;4.388;2024-01-15T05:48:56;100290.09;;;7.04;57.75
21547;BME280;41275;51.912;4.388;2024-01-15T05:54:18;100261.53;;;7.07;57.43
21547;BME280;41275;51.912;4.388;2024-01-15T05:59:40;100269.78;;;7.11;57.52
21547;BME280;41275;51.912;4.388;2024-01-15T06:05:02;100263.72;;;7.10;57.90
21547;BME280;41275;51.912;4.388;2024-01-15T06:10:23;100285.22;;;7.26;57.78
21547;BME280;41275;51.912;4.388;2024-01-15T06:15:45;100315.59;;;7.28;57.22
21547;BME280;41275;51.912;4.388;2024-01-15T06:21:06;100313.00;;;6.72;58.09
21547;BME280;41275;51.912;4.388;2024-01-15T06:26:27;100300.56;;;6.60;58.18
21547;BME280;41275;51.912;4.388;2024-01-15T06:31:48;100286.13;;;6.70;58.30
21547;BME280;41275;51.912;4.388;2024-01-15T06:37:10;100289.09;;;6.80;57.97
21547;BME280;41275;51.912;4.388;2024-01-15T06:42:31;100290.38;;;6.96;58.01
21547;BME280;41275;51.912;4.388;2024-01-15T06:47:52;100266.78;;;7.07;58.41
21547;BME280;41275;51.912;4.388;2024-01-15T06:53:13;100250.50;;;7.17;57.88
21547;BME280;41275;51.912;4.388;2024-01-15T06:58:34;100254.31;;;7.40;58.53
21547;BME280;41275;51.912;4.388;2024-01-15T07:03:56;100288.63;;;7.51;58.39
21547;BME280;41275;51.912;4.388;2024-01-15T07:09:17;100291.84;;;7.72;58.67
21547;BME280;41275;51.912;4.388;2024-01-15T07:14:38;100268.13;;;7.53;58.30
21547;BME280;41275;51.912;4.388;2024-01-15T07:19:59;100254.75;;;7.36;58.03
21547;BME280;41275;51.912;4.388;2024-01-15T07:25:20;100248.19;;;7.27;58.41
21547;BME280;41275;51.912;4.388;2024-01-15T07:30:42;100253.94;;;7.36;58.66
21547;BME280;41275;51.912;4.388;2024-01-15T07:36:03;100254.16;;;7.53;58.61
21547;BME280;41275;51.912;4.388;2024-01-15T07:41:24;100262.72;;;7.67;58.46
21547;BME280;41275;51.912;4.388;2024-01-15T07:46:46;100276.53;;;7.80;59.15
21547;BME280;41275;51.912;4.388;2024-01-15T07:52:08;100269.13;;;7.89;59.00
21547;BME280;41275;51.912;4.388;2024-01-15T07:57:29;100275.94;;;7.97;58.75
21547;BME280;41275;51.912;4.388;2024-01-15T08:02:50;100268.69;;;7.92;58.31
21547;BME280;41275;51.912;4.388;2024-01-15T08:08:12;100265.75;;;7.82;58.54
21547;BME280;41275;51.912;4.388;2024-01-15T08:13:33;100256.19;;;7.69;58.42
21547;BME280;41275;51.912;4.388;2024-01-15T08:18:54;100266.00;;;7.62;57.85
21547;BME280;41275;51.912;4.388;2024-01-15T08:24:16;100279.63;;;7.59;58.43
21547;BME280;41275;51.912;4.388;2024-01-15T08:29:37;100273.78;;;7.57;57.55
21547;BME280;41275;51.912;4.388;2024-01-15T08:34:59;100289.13;;;7.60;57.81
21547;BME280;41275;51.912;4.388;2024-01-15T08:40:20;100277.13;;;7.64;57.68
21547;BME280;41275;51.912;4.388;2024-01-15T08:45:41;100286.72;;;7.77;57.36
21547;BME280;41275;51.912;4.388;2024-01-15T08:51:02;100296.75;;;7.86;57.35
21547;BME280;41275;51.912;4.388;2024-01-15T08:56:24;100290.13;;;7.96;57.08
21547;BME280;41275;51.912;4.388;2024-01-15T09:01:45;100295.38;;;8.14;56.90
21547;BME280;41275;51.912;4.388;2024-01-15T09:07:07;100304.00;;;8.51;56.96
21547;BME280;41275;51.912;4.388;2024-01-15T09:12:28;100310.81;;;8.59;56.27
21547;BME280;41275;51.912;4.388;2024-01-15T09:17:50;100313.16;;;8.37;56.33
21547;BME280;41275;51.912;4.388;2024-01-15T09:23:11;100304.34;;;8.25;56.44
21547;BME280;41275;51.912;4.388;2024-01-15T09:28:33;100309.03;;;8.41;56.76
21547;BME280;41275;51.912;4.388;2024-01-15T09:33:54;100305.84;;;8.51;56.61
21547;BME280;41275;51.912;4.388;2024-01-15T09:39:21;100316.22;;;8.34;56.01
21547;BME280;41275;51.912;4.388;2024-01-15T09:44:44;100308.69;;;8.38;56.85
21547;BME280;41275;51.912;4.388;2024-01-15T09:50:06;100322.34;;;8.28;56.21
21547;BME280;41275;51.912;4.388;2024-01-15T09:55:28;100306.72;;;8.45;56.04
21547;BME280;41275;51.912;4.388;2024-01-15T10:00:51;100298.09;;;8.79;56.20
21547;BME280;41275;51.912;4.388;2024-01-15T10:06:16;100326.59;;;9.01;55.74
21547;BME280;41275;51.912;4.388;2024-01-15T10:11:44;100355.34;;;8.37;54.68
21547;BME280;41275;51.912;4.388;2024-01-15T10:17:12;100338.41;;;7.53;55.59
21547;BME280;41275;51.912;4.388;2024-01-15T10:22:35;100331.22;;;7.23;56.24
21547;BME280;41275;51.912;4.388;2024-01-15T10:28:00;100354.06;;;7.23;56.61
21547;BME280;41275;51.912;4.388;2024-01-15T10:33:22;100342.47;;;7.30;57.11
21547;BME280;41275;51.912;4.388;2024-01-15T10:38:46;100334.47;;;7.62;57.24
21547;BME280;41275;51.912;4.388;2024-01-15T10:44:08;100331.84;;;7.80;57.10
21547;BME280;41275;51.912;4.388;2024-01-15T10:49:29;100329.44;;;7.79;56.68
21547;BME280;41275;51.912;4.388;2024-01-15T10:54:51;100357.31;;;7.68;57.19
21547;BME280;41275;51.912;4.388;2024-01-15T11:00:15;100360.09;;;7.73;57.11
21547;BME280;41275;51.912;4.388;2024-01-15T11:05:42;100346.44;;;7.83;56.82
21547;BME280;41275;51.912;4.388;2024-01-15T11:11:03;100339.19;;;7.78;57.54
21547;BME280;41275;51.912;4.388;2024-01-15T11:16:57;100346.34;;;7.90;56.75
21547;BME280;41275;51.912;4.388;2024-01-15T11:27:51;100329.53;;;8.21;56.83
21547;BME280;41275;51.912;4.388;2024-01-15T11:33:32;100334.88;;;8.32;57.14
21547;BME280;41275;51.912;4.388;2024-01-15T11:38:53;100349.91;;;8.62;56.51
21547;BME280;41275;51.912;4.388;2024-01-15T11:44:14;100394.44;;;9.12;56.15
21547;BME280;41275;51.912;4.388;2024-01-15T11:55:37;100377.94;;;8.26;56.25
21547;BME280;41275;51.912;4.388;2024-01-15T12:00:59;100388.88;;;8.11;56.02
21547;BME280;41275;51.912;4.388;2024-01-15T12:06:20;100371.28;;;8.05;56.21
21547;BME280;41275;51.912;4.388;2024-01-15T12:11:49;100386.22;;;7.93;55.89
21547;BME280;41275;51.912;4.388;2024-01-15T12:17:12;100400.28;;;7.87;56.12
21547;BME280;41275;51.912;4.388;2024-01-15T12:22:33;100416.28;;;7.85;56.67
21547;BME280;41275;51.912;4.388;2024-01-15T12:27:55;100404.28;;;7.90;57.07
21547;BME280;41275;51.912;4.388;2024-01-15T12:33:17;100405.91;;;8.27;57.19
21547;BME280;41275;51.912;4.388;2024-01-15T12:38:40;100392.31;;;9.44;57.39
21547;BME280;41275;51.912;4.388;2024-01-15T12:44:01;100402.81;;;10.26;56.83
21547;BME280;41275;51.912;4.388;2024-01-15T12:49:23;100397.53;;;10.55;56.59
21547;BME280;41275;51.912;4.388;2024-01-15T12:54:45;100401.31;;;10.30;55.33
21547;BME280;41275;51.912;4.388;2024-01-15T13:00:06;100416.97;;;9.97;54.77
21547;BME280;41275;51.912;4.388;2024-01-15T13:05:32;100422.72;;;9.47;54.25
21547;BME280;41275;51.912;4.388;2024-01-15T13:10:55;100430.28;;;10.25;54.37
21547;BME280;41275;51.912;4.388;2024-01-15T13:16:18;100422.34;;;10.66;53.60
21547;BME280;41275;51.912;4.388;2024-01-15T13:21:42;100444.09;;;10.04;52.55
21547;BME280;41275;51.912;4.388;2024-01-15T13:27:03;100453.84;;;9.33;51.81
21547;BME280;41275;51.912;4.388;2024-01-15T13:32:25;100447.22;;;8.70;52.12
21547;BME280;41275;51.912;4.388;2024-01-15T13:37:49;100471.56;;;8.54;52.16
21547;BME280;41275;51.912;4.388;2024-01-15T13:43:11;100475.56;;;8.20;52.37
21547;BME280;41275;51.912;4.388;2024-01-15T13:48:32;100456.28;;;7.82;52.78
21547;BME280;41275;51.912;4.388;2024-01-15T13:53:54;100461.88;;;8.29;52.92
21547;BME280;41275;51.912;4.388;2024-01-15T13:59:15;100462.81;;;8.35;53.61
21547;BME280;41275;51.912;4.388;2024-01-15T14:04:37;100470.03;;;8.46;53.86
21547;BME280;41275;51.912;4.388;2024-01-15T14:09:58;100474.53;;;8.76;54.22
21547;BME280;41275;51.912;4.388;2024-01-15T14:15:20;100478.63;;;8.72;54.03
21547;BME280;41275;51.912;4.388;2024-01-15T14:20:42;100497.69;;;8.74;54.26
21547;BME280;41275;51.912;4.388;2024-01-15T14:26:04;100524.06;;;8.92;54.06
21547;BME280;41275;51.912;4.388;2024-01-15T14:31:25;100529.13;;;9.24;52.36
21547;BME280;41275;51.912;4.388;2024-01-15T14:36:47;100517.09;;;8.79;52.43
21547;BME280;41275;51.912;4.388;2024-01-15T14:42:10;100510.75;;;8.69;52.78
21547;BME280;41275;51.912;4.388;2024-01-15T14:47:32;100516.59;;;8.34;53.12
21547;BME280;41275;51.912;4.388;2024-01-15T14:52:53;100522.47;;;8.11;52.62
21547;BME280;41275;51.912;4.388;2024-01-15T14:58:14;100522.81;;;7.96;52.19
21547;BME280;41275;51.912;4.388;2024-01-15T15:03:36;100523.69;;;7.90;52.17
21547;BME280;41275;51.912;4.388;2024-01-15T15:08:57;100520.66;;;8.11;53.14
21547;BME280;41275;51.912;4.388;2024-01-15T15:14:20;100531.53;;;8.40;52.82
21547;BME280;41275;51.912;4.388;2024-01-15T15:19:41;100546.06;;;8.68;52.68
21547;BME280;41275;51.912;4.388;2024-01-15T15:25:02;100559.00;;;8.88;52.70
21547;BME280;41275;51.912;4.388;2024-01-15T15:30:24;100556.22;;;9.01;52.21
21547;BME280;41275;51.912;4.388;2024-01-15T15:35:45;100560.25;;;9.03;52.28
21547;BME280;41275;51.912;4.388;2024-01-15T15:41:06;100571.16;;;9.25;52.44
21547;BME280;41275;51.912;4.388;2024-01-15T15:46:27;100600.00;;;9.39;52.28
21547;BME280;41275;51.912;4.388;2024-01-15T15:51:49;100599.03;;;9.03;52.08
21547;BME280;41275;51.912;4.388;2024-01-15T15:57:10;100587.59;;;8.72;52.77
21547;BME280;41275;51.912;4.388;2024-01-15T16:02:31;100600.28;;;8.64;52.21
21547;BME280;41275;51.912;4.388;2024-01-15T16:07:52;100603.16;;;8.62;52.45
21547;BME280;41275;51.912;4.388;2024-01-15T16:13:13;100623.16;;;8.70;52.76
21547;BME280;41275;51.912;4.388;2024-01-15T16:18:35;100615.53;;;8.80;51.84
21547;BME280;41275;51.912;4.388;2024-01-15T16:23:56;100626.53;;;8.77;51.68
21547;BME280;41275;51.912;4.388;2024-01-15T16:29:17;100649.84;;;8.98;51.36
21547;BME280;41275;51.912;4.388;2024-01-15T16:34:38;100668.75;;;8.95;51.34
21547;BME280;41275;51.912;4.388;2024-01-15T16:40:00;100681.38;;;8.50;51.55
21547;BME280;41275;51.912;4.388;2024-01-15T16:45:21;100673.38;;;8.00;52.16
21547;BME280;41275;51.912;4.388;2024-01-15T16:50:43;100651.25;;;7.76;52.53
21547;BME280;41275;51.912;4.388;2024-01-15T16:56:04;100663.47;;;7.63;53.53
21547;BME280;41275;51.912;4.388;2024-01-15T17:01:26;100667.13;;;7.62;53.72
21547;BME280;41275;51.912;4.388;2024-01-15T17:06:47;100672.56;;;7.68;53.25
21547;BME280;41275;51.912;4.388;2024-01-15T17:12:08;100665.47;;;7.68;53.90
21547;BME280;41275;51.912;4.388;2024-01-15T17:17:29;100668.41;;;7.85;53.93
21547;BME280;41275;51.912;4.388;2024-01-15T17:22:50;100677.38;;;8.09;53.66
21547;BME280;41275;51.912;4.388;2024-01-15T17:28:12;100681.16;;;8.20;53.75
21547;BME280;41275;51.912;4.388;2024-01-15T17:33:33;100689.16;;;8.06;53.55
21547;BME280;41275;51.912;4.388;2024-01-15T17:38:54;100685.16;;;7.97;54.49
21547;BME280;41275;51.912;4.388;2024-01-15T17:44:18;100696.69;;;8.03;54.29
21547;BME280;41275;51.912;4.388;2024-01-15T17:49:39;100715.22;;;8.21;53.95
21547;BME280;41275;51.912;4.388;2024-01-15T17:55:00;100732.75;;;8.41;54.56
21547;BME280;41275;51.912;4.388;2024-01-15T18:00:21;100715.38;;;7.95;53.74
21547;BME280;41275;51.912;4.388;2024-01-15T18:05:43;100745.03;;;7.83;54.25
21547;BME280;41275;51.912;4.388;2024-01-15T18:11:04;100734.13;;;7.73;54.97
21547;BME280;41275;51.912;4.388;2024-01-15T18:16:25;100729.88;;;7.79;55.01
21547;BME280;41275;51.912;4.388;2024-01-15T18:21:48;100752.03;;;8.03;54.99
21547;BME280;41275;51.912;4.388;2024-01-15T18:27:09;100768.75;;;8.22;54.78
21547;BME280;41275;51.912;4.388;2024-01-15T18:32:30;100783.53;;;8.29;54.46
21547;BME280;41275;51.912;4.388;2024-01-15T18:37:52;100773.13;;;8.03;54.50
21547;BME280;41275;51.912;4.388;2024-01-15T18:43:13;100786.78;;;7.86;54.73
21547;BME280;41275;51.912;4.388;2024-01-15T18:48:35;100775.78;;;7.90;55.43
21547;BME280;41275;51.912;4.388;2024-01-15T18:53:56;100776.16;;;8.00;55.59
21547;BME280;41275;51.912;4.388;2024-01-15T18:59:17;100785.13;;;7.92;55.15
21547;BME280;41275;51.912;4.388;2024-01-15T19:04:40;100763.91;;;7.74;55.49
21547;BME280;41275;51.912;4.388;2024-01-15T19:10:01;100784.00;;;7.61;54.83
21547;BME280;41275;51.912;4.388;2024-01-15T19:15:22;100789.66;;;7.72;54.61
21547;BME280;41275;51.912;4.388;2024-01-15T19:20:44;100801.22;;;7.64;54.69
21547;BME280;41275;51.912;4.388;2024-01-15T19:26:05;100792.94;;;7.67;54.68
21547;BME280;41275;51.912;4.388;2024-01-15T19:31:27;100797.75;;;7.70;55.08
21547;BME280;41275;51.912;4.388;2024-01-15T19:36:50;100797.16;;;7.75;54.88
21547;BME280;41275;51.912;4.388;2024-01-15T19:42:11;100808.50;;;7.75;55.20
21547;BME280;41275;51.912;4.388;2024-01-15T19:47:34;100808.91;;;7.72;54.73
21547;BME280;41275;51.912;4.388;2024-01-15T19:52:55;100811.94;;;7.82;54.67
21547;BME280;41275;51.912;4.388;2024-01-15T19:58:16;100832.47;;;8.12;55.09
21547;BME280;41275;51.912;4.388;2024-01-15T20:03:37;100846.34;;;8.32;54.58
21547;BME280;41275;51.912;4.388;2024-01-15T20:08:58;100861.53;;;8.50;54.54
21547;BME280;41275;51.912;4.388;2024-01-15T20:14:20;100861.13;;;8.47;54.40
21547;BME280;41275;51.912;4.388;2024-01-15T20:19:41;100862.84;;;8.21;54.79
21547;BME280;41275;51.912;4.388;2024-01-15T20:25:03;100869.03;;;8.02;54.80
21547;BME280;41275;51.912;4.388;2024-01-15T20:30:25;100856.47;;;7.91;54.67
21547;BME280;41275;51.912;4.388;2024-01-15T20:35:46;100842.50;;;7.90;54.82
21547;BME280;41275;51.912;4.388;2024-01-15T20:41:07;100864.91;;;8.12;55.02
21547;BME280;41275;51.912;4.388;2024-01-15T20:46:28;100865.31;;;8.16;54.31
21547;BME280;41275;51.912;4.388;2024-01-15T20:51:50;100887.03;;;8.11;54.39
21547;BME280;41275;51.912;4.388;2024-01-15T20:57:11;100876.16;;;8.33;54.66
21547;BME280;41275;51.912;4.388;2024-01-15T21:02:33;100878.16;;;8.51;53.83
21547;BME280;41275;51.912;4.388;2024-01-15T21:07:56;100874.56;;;8.32;54.53
21547;BME280;41275;51.912;4.388;2024-01-15T21:13:18;100883.88;;;8.34;54.57
21547;BME280;41275;51.912;4.388;2024-01-15T21:18:40;100881.03;;;8.36;54.22
21547;BME280;41275;51.912;4.388;2024-01-15T21:24:01;100882.69;;;8.30;54.02
21547;BME280;41275;51.912;4.388;2024-01-15T21:29:23;100879.16;;;7.98;54.52
21547;BME280;41275;51.912;4.388;2024-01-15T21:34:44;100866.44;;;7.75;54.91
21547;BME280;41275;51.912;4.388;2024-01-15T21:40:06;100880.03;;;7.72;55.15
21547;BME280;41275;51.912;4.388;2024-01-15T21:45:33;100880.38;;;7.96;54.68
21547;BME280;41275;51.912;4.388;2024-01-15T21:50:54;100890.88;;;8.09;54.81
21547;BME280;41275;51.912;4.388;2024-01-15T21:56:15;100880.47;;;8.27;55.04
21547;BME280;41275;51.912;4.388;2024-01-15T22:01:37;100886.72;;;8.40;54.59
21547;BME280;41275;51.912;4.388;2024-01-15T22:06:58;100889.31;;;8.53;55.39
21547;BME280;41275;51.912;4.388;2024-01-15T22:12:19;100904.66;;;8.69;54.81
21547;BME280;41275;51.912;4.388;2024-01-15T22:17:42;100899.25;;;8.51;54.99
21547;BME280;41275;51.912;4.388;2024-01-15T22:23:03;100891.56;;;8.36;54.94
21547;BME280;41275;51.912;4.388;2024-01-15T22:28:25;100890.84;;;8.16;55.32
21547;BME280;41275;51.912;4.388;2024-01-15T22:33:46;100901.44;;;8.02;55.05
21547;BME280;41275;51.912;4.388;2024-01-15T22:39:07;100922.13;;;7.99;55.37
21547;BME280;41275;51.912;4.388;2024-01-15T22:44:28;100911.56;;;8.05;55.19
21547;BME280;41275;51.912;4.388;2024-01-15T22:49:49;100912.41;;;8.06;55.05
21547;BME280;41275;51.912;4.388;2024-01-15T22:55:11;100923.69;;;8.13;54.72
21547;BME280;41275;51.912;4.388;2024-01-15T23:00:32;100932.22;;;8.22;54.96
21547;BME280;41275;51.912;4.388;2024-01-15T23:05:53;100942.09;;;8.33;54.06
21547;BME280;41275;51.912;4.388;2024-01-15T23:11:15;100957.31;;;8.44;53.61
21547;BME280;41275;51.912;4.388;2024-01-15T23:16:36;100966.47;;;8.42;53.72
21547;BME280;41275;51.912;4.388;2024-01-15T23:21:57;100972.00;;;8.14;52.97
21547;BME280;41275;51.912;4.388;2024-01-15T23:27:18;100966.34;;;7.90;53.20
21547;BME280;41275;51.912;4.388;2024-01-15T23:32:40;100964.13;;;7.74;53.99
21547;BME280;41275;51.912;4.388;2024-01-15T23:38:01;100958.06;;;7.60;53.94
21547;BME280;41275;51.912;4.388;2024-01-15T23:43:22;100970.81;;;7.56;53.37
21547;BME280;41275;51.912;4.388;2024-01-15T23:48:44;100964.94;;;7.54;54.37
21547;BME280;41275;51.912;4.388;2024-01-15T23:54:06;100969.59;;;7.79;53.89
21547;BME280;41275;51.912;4.388;2024-01-15T23:59:27;100969.78;;;7.91;54.51
